Home > Products > Valid Products > TAF

000
FTUS41 KALY 041627 AAA
TAFALB
TAF AMD
KALB 041627Z 0416/0512 28006KT P6SM BKN020 OVC025
     FM041800 28010G20KT P6SM SCT025 SCT100 BKN250
     FM042300 29010KT P6SM BKN050 BKN100 BKN250
     FM051000 32008KT P6SM SCT050 BKN100 BKN250=



000
FTUS41 KALY 041142
TAFPOU
TAF
KPOU 041142Z 0412/0512 22006KT P6SM SCT025 BKN080
      TEMPO 0412/0415 5SM -RA BR BKN015 OVC050
     FM041500 26006KT P6SM SCT025 BKN050 OVC250
     FM041800 27005KT P6SM BKN050 BKN100 BKN250
     FM042300 VRB03KT P6SM SCT025 BKN050 OVC100
     FM050300 33004KT 4SM -SN BKN025 OVC050
     FM050600 34005KT 2SM -SN SCT008 OVC015=



000
FTUS41 KALY 041142
TAFALB
TAF
KALB 041142Z 0412/0512 VRB03KT P6SM OVC025
      TEMPO 0412/0415 OVC015
     FM041500 27010G18KT P6SM SCT025 BKN050 OVC250
     FM041800 28010G20KT P6SM SCT050 SCT100 BKN250
     FM042300 29010KT P6SM BKN050 BKN100 BKN250
     FM051000 32008KT P6SM SCT050 BKN100 BKN250=



000
FTUS41 KALY 041142
TAFGFL
TAF
KGFL 041142Z 0412/0512 21007KT P6SM SCT025 OVC050
     FM041500 23007KT P6SM BKN050 OVC250
     FM041800 25010G18KT P6SM SCT050 SCT100 BKN250
     FM042200 26008KT P6SM BKN050 BKN100 BKN250
     FM051000 31008KT P6SM SCT050 BKN250=



000
FTUS41 KALY 041142
TAFALB
TAF
KALB 041142Z 0412/0512 VRB03KT P6SM OVC025
      TEMPO 0412/0415 OVC015
     FM041500 27010G18KT P6SM SCT025 BKN050 OVC250
     FM041800 28010G20KT P6SM SCT050 SCT100 BKN250
     FM042300 29010KT P6SM BKN050 BKN100 BKN250
     FM051000 32008KT P6SM SCT050 BKN100 BKN250=



000
FTUS41 KALY 041142
TAFGFL
TAF
KGFL 041142Z 0412/0512 21007KT P6SM SCT025 OVC050
     FM041500 23007KT P6SM BKN050 OVC250
     FM041800 25010G18KT P6SM SCT050 SCT100 BKN250
     FM042200 26008KT P6SM BKN050 BKN100 BKN250
     FM051000 31008KT P6SM SCT050 BKN250=



000
FTUS41 KALY 041142
TAFPOU
TAF
KPOU 041142Z 0412/0512 22006KT P6SM SCT025 BKN080
      TEMPO 0412/0415 5SM -RA BR BKN015 OVC050
     FM041500 26006KT P6SM SCT025 BKN050 OVC250
     FM041800 27005KT P6SM BKN050 BKN100 BKN250
     FM042300 VRB03KT P6SM SCT025 BKN050 OVC100
     FM050300 33004KT 4SM -SN BKN025 OVC050
     FM050600 34005KT 2SM -SN SCT008 OVC015=



000
FTUS41 KALY 040907 AAB
TAFGFL
TAF AMD
KGFL 040907Z 0409/0506 23006KT P6SM OVC025
      TEMPO 0409/0412 OVC015
     FM041200 24010KT P6SM SCT025 OVC050
     FM041500 25012KT P6SM BKN050 OVC250
     FM041800 25010G18KT P6SM SCT050 SCT100 BKN250
     FM042200 26008KT P6SM BKN050 BKN100 BKN250=



000
FTUS41 KALY 040907 AAA
TAFALB
TAF AMD
KALB 040907Z 0409/0506 18009KT P6SM OVC025
      TEMPO 0409/0412 4SM -DZ BR OVC015
     FM041200 26010G22KT P6SM OVC025
     FM041500 27013G23KT P6SM SCT025 BKN050 OVC250
     FM041800 28010G20KT P6SM SCT050 SCT100 BKN250
     FM042300 29010KT P6SM BKN050 BKN100 BKN250=



000
FTUS41 KALY 040907 AAA
TAFPOU
TAF AMD
KPOU 040907Z 0409/0506 20006KT P6SM OVC015
      TEMPO 0409/0412 4SM -DZ BR
     FM041200 25006KT P6SM OVC025
     FM041500 26006KT P6SM SCT025 BKN050 OVC250
     FM041800 27005KT P6SM BKN050 BKN100 BKN250
     FM042300 VRB03KT P6SM BKN050 BKN100 BKN250
     FM050300 33006KT P6SM VCSH OVC050=



000
FTUS41 KALY 040626 AAA
TAFGFL
TAF AMD
KGFL 040626Z 0406/0506 21008KT 6SM BR SCT008 OVC015
      TEMPO 0406/0409 4SM -FZDZ BR OVC008
     FM040900 23010KT P6SM OVC025
     FM041200 24010KT P6SM SCT025 OVC050
     FM041500 25012KT P6SM BKN050 OVC250
     FM041800 25010G18KT P6SM SCT050 SCT100 BKN250
     FM042200 26008KT P6SM BKN050 BKN100 BKN250=



000
FTUS41 KALY 040626 AAA
TAFGFL
TAF AMD
KGFL 040626Z 0406/0506 21008KT 6SM BR SCT008 OVC015
      TEMPO 0406/0409 4SM -FZDZ BR OVC008
     FM040900 23010KT P6SM OVC025
     FM041200 24010KT P6SM SCT025 OVC050
     FM041500 25012KT P6SM BKN050 OVC250
     FM041800 25010G18KT P6SM SCT050 SCT100 BKN250
     FM042200 26008KT P6SM BKN050 BKN100 BKN250=



000
FTUS41 KALY 040555
TAFPOU
TAF
KPOU 040555Z 0406/0506 VRB03KT P6SM OVC015
      TEMPO 0406/0410 4SM -DZ BR
     FM041200 25006KT P6SM OVC025
     FM041500 26006KT P6SM SCT025 BKN050 OVC250
     FM041800 27005KT P6SM BKN050 BKN100 BKN250
     FM042300 VRB03KT P6SM BKN050 BKN100 BKN250
     FM050300 33006KT P6SM VCSH OVC050=



000
FTUS41 KALY 040555
TAFGFL
TAF
KGFL 040555Z 0406/0506 21008KT 6SM BR OVC015
      TEMPO 0406/0409 4SM -FZDZ BR OVC015
     FM040900 23010KT P6SM OVC025
     FM041200 24010KT P6SM SCT025 OVC050
     FM041500 25012KT P6SM BKN050 OVC250
     FM041800 25010G18KT P6SM SCT050 SCT100 BKN250
     FM042200 26008KT P6SM BKN050 BKN100 BKN250=



000
FTUS41 KALY 040555
TAFALB
TAF
KALB 040555Z 0406/0506 18015G25KT P6SM SCT015 OVC025
      TEMPO 0406/0409 5SM -FZDZ BR SCT008 OVC015
     FM040900 21014G24KT P6SM OVC025
      TEMPO 0409/0411 4SM -DZ BR OVC015
     FM041200 26010G22KT P6SM OVC025
     FM041500 27013G23KT P6SM SCT025 BKN050 OVC250
     FM041800 28010G20KT P6SM SCT050 SCT100 BKN250
     FM042300 29010KT P6SM BKN050 BKN100 BKN250=



000
FTUS41 KALY 040555
TAFPOU
TAF
KPOU 040555Z 0406/0506 VRB03KT P6SM OVC015
      TEMPO 0406/0410 4SM -DZ BR
     FM041200 25006KT P6SM OVC025
     FM041500 26006KT P6SM SCT025 BKN050 OVC250
     FM041800 27005KT P6SM BKN050 BKN100 BKN250
     FM042300 VRB03KT P6SM BKN050 BKN100 BKN250
     FM050300 33006KT P6SM VCSH OVC050=



000
FTUS41 KALY 040555
TAFGFL
TAF
KGFL 040555Z 0406/0506 21008KT 6SM BR OVC015
      TEMPO 0406/0409 4SM -FZDZ BR OVC015
     FM040900 23010KT P6SM OVC025
     FM041200 24010KT P6SM SCT025 OVC050
     FM041500 25012KT P6SM BKN050 OVC250
     FM041800 25010G18KT P6SM SCT050 SCT100 BKN250
     FM042200 26008KT P6SM BKN050 BKN100 BKN250=



000
FTUS41 KALY 040555
TAFALB
TAF
KALB 040555Z 0406/0506 18015G25KT P6SM SCT015 OVC025
      TEMPO 0406/0409 5SM -FZDZ BR SCT008 OVC015
     FM040900 21014G24KT P6SM OVC025
      TEMPO 0409/0411 4SM -DZ BR OVC015
     FM041200 26010G22KT P6SM OVC025
     FM041500 27013G23KT P6SM SCT025 BKN050 OVC250
     FM041800 28010G20KT P6SM SCT050 SCT100 BKN250
     FM042300 29010KT P6SM BKN050 BKN100 BKN250=



000
FTUS41 KALY 040447 AAC
TAFPOU
TAF AMD
KPOU 040447Z 0405/0424 VRB03KT P6SM OVC015
      TEMPO 0405/0408 4SM -DZ OVC008
     FM041200 28005KT P6SM OVC040
     FM041600 28007KT P6SM OVC060=



000
FTUS41 KALY 040447 AAC
TAFALB
TAF AMD
KALB 040447Z 0405/0424 17014G24KT P6SM VCSH SCT015 OVC025
      TEMPO 0405/0408 5SM -FZDZ BR SCT008 OVC015
     FM041200 28008G14KT P6SM OVC050
     FM041600 29010G16KT P6SM OVC080=



000
FTUS41 KALY 040447 AAB
TAFGFL
TAF AMD
KGFL 040447Z 0405/0424 21010KT 5SM BR OVC015
      TEMPO 0405/0408 2SM -FZDZ BR BKN009 OVC015
     FM040800 21010KT 3SM BR VCSH OVC015
     FM041100 25008G14KT P6SM OVC040
     FM041500 25008G14KT P6SM BKN080=



000
FTUS41 KALY 040356 AAB
TAFALB
TAF AMD
KALB 040356Z 0404/0424 17014G24KT P6SM VCSH SCT008 OVC015
      TEMPO 0404/0406 5SM -FZDZ BR OVC008
     FM041200 28008G14KT P6SM OVC050
     FM041600 29010G16KT P6SM OVC080=



000
FTUS41 KALY 040356 AAB
TAFALB
TAF AMD
KALB 040356Z 0404/0424 17014G24KT P6SM VCSH SCT008 OVC015
      TEMPO 0404/0406 5SM -FZDZ BR OVC008
     FM041200 28008G14KT P6SM OVC050
     FM041600 29010G16KT P6SM OVC080=



000
FTUS41 KALY 040355 AAB
TAFPOU
TAF AMD
KPOU 040355Z 0404/0424 16006KT P6SM VCSH OVC018
      TEMPO 0404/0405 3SM -FZRAPL BR OVC008
     FM041200 28005KT P6SM OVC040
     FM041600 28007KT P6SM OVC060=



000
FTUS41 KALY 040248 AAA
TAFGFL
TAF AMD
KGFL 040248Z 0403/0424 19010G15KT 3SM -PL SCT008 OVC020
      TEMPO 0403/0406 2SM -FZRAPLSN BR VV008
     FM040600 21010KT 3SM BR VCSH OVC015
     FM041100 25008G14KT P6SM OVC040
     FM041500 25008G14KT P6SM BKN080=



000
FTUS41 KALY 040051 AAA
TAFALB
TAF AMD
KALB 040051Z 0401/0424 16014G22KT 2SM -PLSN SCT008 OVC015
      TEMPO 0401/0403 1SM -PLSN BR VV008
     FM040300 17012G20KT 3SM -FZRAPL BR OVC008
      TEMPO 0403/0406 2SM -FZRAPLSN BR OVC008
     FM040700 21010KT 3SM BR VCSH OVC015
     FM041200 28008G14KT P6SM OVC050
     FM041600 29010G16KT P6SM OVC080=



000
FTUS41 KALY 040051 AAA
TAFALB
TAF AMD
KALB 040051Z 0401/0424 16014G22KT 2SM -PLSN SCT008 OVC015
      TEMPO 0401/0403 1SM -PLSN BR VV008
     FM040300 17012G20KT 3SM -FZRAPL BR OVC008
      TEMPO 0403/0406 2SM -FZRAPLSN BR OVC008
     FM040700 21010KT 3SM BR VCSH OVC015
     FM041200 28008G14KT P6SM OVC050
     FM041600 29010G16KT P6SM OVC080=



000
FTUS41 KALY 040002 AAA
TAFPOU
TAF AMD
KPOU 040002Z 0400/0424 15006KT 2SM -SNPL OVC020
      TEMPO 0400/0402 3/4SM -SN BR VV008
     FM040200 16006KT 3SM -FZRAPL BR OVC015
      TEMPO 0402/0406 2SM -FZRAPL BR OVC008
     FM040800 23006KT 3SM -RA BR VCSH OVC015
     FM041200 28005KT P6SM OVC040
     FM041600 28007KT P6SM OVC060=



000
FTUS41 KALY 040002 AAA
TAFPOU
TAF AMD
KPOU 040002Z 0400/0424 15006KT 2SM -SNPL OVC020
      TEMPO 0400/0402 3/4SM -SN BR VV008
     FM040200 16006KT 3SM -FZRAPL BR OVC015
      TEMPO 0402/0406 2SM -FZRAPL BR OVC008
     FM040800 23006KT 3SM -RA BR VCSH OVC015
     FM041200 28005KT P6SM OVC040
     FM041600 28007KT P6SM OVC060=



000
FTUS41 KALY 032331
TAFALB
TAF
KALB 032331Z 0400/0424 16012G18KT 1SM -SN SCT008 OVC015
      TEMPO 0400/0402 1/2SM SN FZFG VV008
     FM040200 17010G18KT 2SM -SNPL BR OVC008
     FM040400 18010G16KT 3SM -FZRAPL BR OVC015
      TEMPO 0404/0407 2SM -FZRAPL BR OVC008
     FM040700 21010KT 3SM BR VCSH OVC015
     FM041200 28008G14KT P6SM OVC050
     FM041600 29010G16KT P6SM OVC080=



000
FTUS41 KALY 032331
TAFGFL
TAF
KGFL 032331Z 0400/0424 18007KT 3SM -SN SCT008 OVC020
      TEMPO 0400/0403 1SM -SN BR VV008
     FM040300 20007KT 2SM -SNPL BR OVC008
     FM040400 18010G16KT 3SM -FZRAPL BR OVC015
      TEMPO 0404/0406 2SM -FZRAPL BR OVC008
     FM040600 21010KT 3SM BR VCSH OVC015
     FM041100 25008G14KT P6SM OVC040
     FM041500 25008G14KT P6SM BKN080=



000
FTUS41 KALY 032331
TAFPOU
TAF
KPOU 032331Z 0400/0424 15006KT 1SM -SN OVC012
      TEMPO 0400/0402 1/2SM SN FZFG VV008
     FM040200 16006KT 2SM -SNPL BR OVC008
     FM040400 18006KT 3SM -FZRAPL BR OVC015
      TEMPO 0404/0408 2SM -FZRAPL BR OVC008
     FM040800 23006KT 3SM -RA BR VCSH OVC015
     FM041200 28005KT P6SM OVC040
     FM041600 28007KT P6SM OVC060=



000
FTUS41 KALY 032211 AAC
TAFALB
TAF AMD
KALB 032211Z 0322/0418 16012G18KT 1SM -SN OVC020
      TEMPO 0322/0401 1/2SM SN FZFG VV007
     FM040100 18010G18KT 2SM -SNPL BR OVC008
     FM040400 18010KT 2SM -FZRAPL BR OVC008
     FM040700 21010KT 3SM BR VCSH OVC015
     FM041200 22007KT P6SM OVC050=



000
FTUS41 KALY 032211 AAC
TAFALB
TAF AMD
KALB 032211Z 0322/0418 16012G18KT 1SM -SN OVC020
      TEMPO 0322/0401 1/2SM SN FZFG VV007
     FM040100 18010G18KT 2SM -SNPL BR OVC008
     FM040400 18010KT 2SM -FZRAPL BR OVC008
     FM040700 21010KT 3SM BR VCSH OVC015
     FM041200 22007KT P6SM OVC050=



000
FTUS41 KALY 032209 AAB
TAFPOU
TAF AMD
KPOU 032209Z 0322/0418 15007KT 1SM -SN VV010
      TEMPO 0322/0401 1/2SM SN FZFG VV006
     FM040100 19007KT 2SM -FZRAPL BR OVC008
     FM040400 20006KT 2SM -RA BR OVC008
     FM040600 23005KT 3SM BR VCSH OVC015
     FM041200 25005KT P6SM OVC050=



000
FTUS41 KALY 032209 AAB
TAFPOU
TAF AMD
KPOU 032209Z 0322/0418 15007KT 1SM -SN VV010
      TEMPO 0322/0401 1/2SM SN FZFG VV006
     FM040100 19007KT 2SM -FZRAPL BR OVC008
     FM040400 20006KT 2SM -RA BR OVC008
     FM040600 23005KT 3SM BR VCSH OVC015
     FM041200 25005KT P6SM OVC050=



000
FTUS41 KALY 032147 AAB
TAFGFL
TAF AMD
KGFL 032147Z 0322/0418 20011G18KT 3/4SM -SN OVC027
     FM040000 19006KT 1SM -SN BR OVC008
     FM040400 19006KT 2SM -SN BR OVC008
     FM040700 19007KT 3SM BR VCSH OVC015
     FM041200 22007KT P6SM OVC050=



000
FTUS41 KALY 032147 AAB
TAFGFL
TAF AMD
KGFL 032147Z 0322/0418 20011G18KT 3/4SM -SN OVC027
     FM040000 19006KT 1SM -SN BR OVC008
     FM040400 19006KT 2SM -SN BR OVC008
     FM040700 19007KT 3SM BR VCSH OVC015
     FM041200 22007KT P6SM OVC050=



000
FTUS41 KALY 032136 AAA
TAFGFL
TAF AMD
KGFL 032136Z 0322/0418 20016G26KT 1 1/2SM -SN BKN035 OVC045
     FM040000 19006KT 1SM -SN BR OVC008
     FM040400 19006KT 2SM -SN BR OVC008
     FM040700 19007KT 3SM BR VCSH OVC015
     FM041200 22007KT P6SM OVC050=



000
FTUS41 KALY 032032 AAB
TAFALB
TAF AMD
KALB 032032Z 0321/0418 17016G23KT 2SM -SN BKN023 OVC035
      TEMPO 0321/0322 1SM -SN BR OVC012
     FM032200 18012G20KT 1SM -SN BR OVC008
     FM040100 18010G18KT 2SM -SNPL BR OVC008
     FM040400 18010KT 2SM -FZRAPL BR OVC008
     FM040700 21010KT 3SM BR VCSH OVC015
     FM041200 22007KT P6SM OVC050=



000
FTUS41 KALY 032026 AAA
TAFPOU
TAF AMD
KPOU 032026Z 0320/0418 17010G15KT 4SM -SN OVC030
      TEMPO 0320/0322 1 1/2SM -SN BR OVC015
     FM032200 19008G14KT 1SM -SN BR OVC015
     FM040100 19007KT 2SM -FZRAPL BR OVC008
     FM040400 20006KT 2SM -RA BR OVC008
     FM040600 23005KT 3SM BR VCSH OVC015
     FM041200 25005KT P6SM OVC050=



000
FTUS41 KALY 032024 AAA
TAFALB
TAF AMD
KALB 032024Z 0320/0418 17012G22KT 3SM -SN SCT012 OVC025
      TEMPO 0320/0322 1SM -SN BR OVC012
     FM032200 18012G20KT 1SM -SN BR OVC008
     FM040100 18010G18KT 2SM -SNPL BR OVC008
     FM040400 18010KT 2SM -FZRAPL BR OVC008
     FM040700 21010KT 3SM BR VCSH OVC015
     FM041200 22007KT P6SM OVC050=



000
FTUS41 KALY 032024 AAA
TAFALB
TAF AMD
KALB 032024Z 0320/0418 17012G22KT 3SM -SN SCT012 OVC025
      TEMPO 0320/0322 1SM -SN BR OVC012
     FM032200 18012G20KT 1SM -SN BR OVC008
     FM040100 18010G18KT 2SM -SNPL BR OVC008
     FM040400 18010KT 2SM -FZRAPL BR OVC008
     FM040700 21010KT 3SM BR VCSH OVC015
     FM041200 22007KT P6SM OVC050=



000
FTUS41 KALY 031720
TAFPOU
TAF
KPOU 031720Z 0318/0418 VRB03KT P6SM SCT100 OVC200
     FM032000 19004KT P6SM VCSH OVC060
     FM032200 19004KT 1SM -SN BR OVC015
     FM040100 19005KT 2SM -FZRAPL BR OVC008
     FM040400 20006KT 2SM -RA BR OVC008
     FM040600 23005KT 3SM BR VCSH OVC015
     FM041200 25005KT P6SM OVC050=



000
FTUS41 KALY 031720
TAFGFL
TAF
KGFL 031720Z 0318/0418 16007KT P6SM SCT100 OVC250
     FM032000 16007KT P6SM VCSH OVC060
     FM032200 17008KT 1SM -SN BR OVC015
     FM040000 19006KT 1SM -SN BR OVC008
     FM040400 19006KT 2SM -SN BR OVC008 PROB30 0404/0407 2SM -FZRAPL
     FM040700 19007KT 3SM BR VCSH OVC015
     FM041200 22007KT P6SM OVC050=



000
FTUS41 KALY 031720
TAFALB
TAF
KALB 031720Z 0318/0418 18007KT P6SM SCT100 OVC200
     FM032000 16007KT P6SM VCSH OVC060
     FM032200 18010G18KT 1SM -SN BR OVC015
     FM040100 18010G18KT 2SM -SNPL BR OVC008
     FM040400 18010KT 2SM -FZRAPL BR OVC008
     FM040700 21010KT 3SM BR VCSH OVC015
     FM041200 22007KT P6SM OVC050=



000
FTUS41 KALY 031720
TAFPOU
TAF
KPOU 031720Z 0318/0418 VRB03KT P6SM SCT100 OVC200
     FM032000 19004KT P6SM VCSH OVC060
     FM032200 19004KT 1SM -SN BR OVC015
     FM040100 19005KT 2SM -FZRAPL BR OVC008
     FM040400 20006KT 2SM -RA BR OVC008
     FM040600 23005KT 3SM BR VCSH OVC015
     FM041200 25005KT P6SM OVC050=



000
FTUS41 KALY 031720
TAFGFL
TAF
KGFL 031720Z 0318/0418 16007KT P6SM SCT100 OVC250
     FM032000 16007KT P6SM VCSH OVC060
     FM032200 17008KT 1SM -SN BR OVC015
     FM040000 19006KT 1SM -SN BR OVC008
     FM040400 19006KT 2SM -SN BR OVC008 PROB30 0404/0407 2SM -FZRAPL
     FM040700 19007KT 3SM BR VCSH OVC015
     FM041200 22007KT P6SM OVC050=



000
FTUS41 KALY 031720
TAFALB
TAF
KALB 031720Z 0318/0418 18007KT P6SM SCT100 OVC200
     FM032000 16007KT P6SM VCSH OVC060
     FM032200 18010G18KT 1SM -SN BR OVC015
     FM040100 18010G18KT 2SM -SNPL BR OVC008
     FM040400 18010KT 2SM -FZRAPL BR OVC008
     FM040700 21010KT 3SM BR VCSH OVC015
     FM041200 22007KT P6SM OVC050=



000
FTUS41 KALY 031137
TAFPOU
TAF
KPOU 031137Z 0312/0412 VRB02KT P6SM SCT250
     FM031500 VRB03KT P6SM SCT120 OVC200
     FM031800 19004KT P6SM VCSH OVC060
     FM032000 19004KT 1SM -SN BR OVC015
     FM040000 19005KT 2SM -FZRAPL BR OVC008
     FM040400 20006KT 2SM -RA BR OVC007
     FM040600 23005KT 3SM BR VCSH OVC015=



000
FTUS41 KALY 031137
TAFALB
TAF
KALB 031137Z 0312/0412 VRB04KT P6SM SCT250
     FM031600 17006KT P6SM SCT120 OVC200
     FM031900 18009KT P6SM VCSH OVC060
     FM032100 18010G17KT 1SM -SN BR OVC015
     FM040100 18011G18KT 2SM -FZRAPL BR OVC008
     FM040500 21010KT 3SM BR VCSH OVC015=



000
FTUS41 KALY 031137
TAFPOU
TAF
KPOU 031137Z 0312/0412 VRB02KT P6SM SCT250
     FM031500 VRB03KT P6SM SCT120 OVC200
     FM031800 19004KT P6SM VCSH OVC060
     FM032000 19004KT 1SM -SN BR OVC015
     FM040000 19005KT 2SM -FZRAPL BR OVC008
     FM040400 20006KT 2SM -RA BR OVC007
     FM040600 23005KT 3SM BR VCSH OVC015=



000
FTUS41 KALY 031137
TAFGFL
TAF
KGFL 031137Z 0312/0412 VRB03KT P6SM SCT250
     FM031700 18005KT P6SM SCT120 OVC200
     FM032000 18007KT P6SM VCSH OVC060
     FM032200 19008KT 1SM -SN BR OVC015
     FM040300 19007KT 2SM -FZRAPL BR OVC008
     FM040600 20006KT 3SM BR VCSH OVC015=



000
FTUS41 KALY 031137
TAFGFL
TAF
KGFL 031137Z 0312/0412 VRB03KT P6SM SCT250
     FM031700 18005KT P6SM SCT120 OVC200
     FM032000 18007KT P6SM VCSH OVC060
     FM032200 19008KT 1SM -SN BR OVC015
     FM040300 19007KT 2SM -FZRAPL BR OVC008
     FM040600 20006KT 3SM BR VCSH OVC015=



000
FTUS41 KALY 031137
TAFALB
TAF
KALB 031137Z 0312/0412 VRB04KT P6SM SCT250
     FM031600 17006KT P6SM SCT120 OVC200
     FM031900 18009KT P6SM VCSH OVC060
     FM032100 18010G17KT 1SM -SN BR OVC015
     FM040100 18011G18KT 2SM -FZRAPL BR OVC008
     FM040500 21010KT 3SM BR VCSH OVC015=



000
FTUS41 KALY 030526
TAFPOU
TAF
KPOU 030526Z 0306/0406 VRB03KT P6SM SKC
     FM031500 VRB03KT P6SM SCT120 BKN200
     FM031800 19004KT P6SM VCSH OVC060
     FM032000 19004KT 1SM -SN BR OVC015
     FM040000 19005KT 2SM -FZRAPL BR OVC008
     FM040400 20006KT 2SM -RA BR OVC007=



000
FTUS41 KALY 030526
TAFALB
TAF
KALB 030526Z 0306/0406 31010KT P6SM FEW050
     FM030900 VRB03KT P6SM SKC
     FM031600 17006KT P6SM SCT120 BKN200
     FM031900 18009KT P6SM VCSH OVC060
     FM032100 18010G17KT 1SM -SN BR OVC015
     FM040100 18011G18KT 2SM -FZRAPL BR OVC008=



000
FTUS41 KALY 030526
TAFGFL
TAF
KGFL 030526Z 0306/0406 VRB03KT P6SM SKC
     FM031700 18006KT P6SM SCT120 BKN200
     FM032000 18007KT P6SM VCSH OVC060
     FM032200 18008KT 1SM -SN BR OVC015
     FM040300 19007KT 2SM -FZRAPL BR OVC008=



000
FTUS41 KALY 030526
TAFALB
TAF
KALB 030526Z 0306/0406 31010KT P6SM FEW050
     FM030900 VRB03KT P6SM SKC
     FM031600 17006KT P6SM SCT120 BKN200
     FM031900 18009KT P6SM VCSH OVC060
     FM032100 18010G17KT 1SM -SN BR OVC015
     FM040100 18011G18KT 2SM -FZRAPL BR OVC008=



000
FTUS41 KALY 030526
TAFPOU
TAF
KPOU 030526Z 0306/0406 VRB03KT P6SM SKC
     FM031500 VRB03KT P6SM SCT120 BKN200
     FM031800 19004KT P6SM VCSH OVC060
     FM032000 19004KT 1SM -SN BR OVC015
     FM040000 19005KT 2SM -FZRAPL BR OVC008
     FM040400 20006KT 2SM -RA BR OVC007=



000
FTUS41 KALY 030526
TAFGFL
TAF
KGFL 030526Z 0306/0406 VRB03KT P6SM SKC
     FM031700 18006KT P6SM SCT120 BKN200
     FM032000 18007KT P6SM VCSH OVC060
     FM032200 18008KT 1SM -SN BR OVC015
     FM040300 19007KT 2SM -FZRAPL BR OVC008=



000
FTUS41 KALY 022351
TAFGFL
TAF
KGFL 022351Z 0300/0324 29012G20KT P6SM VCSH OVC070
     FM030200 32007KT P6SM BKN060
     FM030600 VRB03KT P6SM SCT060
     FM031000 00000KT P6SM SKC
     FM031800 15003KT P6SM BKN120 BKN250
     FM032200 16008KT 5SM -SN BR SCT020 OVC050=



000
FTUS41 KALY 022351
TAFALB
TAF
KALB 022351Z 0300/0324 30017G30KT P6SM VCSH SCT035 OVC050
     FM030200 31012G22KT P6SM SCT050
     FM030600 32004KT P6SM SKC
     FM031200 00000KT P6SM FEW200
     FM031700 17006KT P6SM BKN200
     FM032100 18010KT 3SM -SN BR SCT020 OVC050=



000
FTUS41 KALY 022351
TAFPOU
TAF
KPOU 022351Z 0300/0324 29008KT P6SM SKC
     FM030300 30004KT P6SM SKC
     FM030600 00000KT P6SM SKC
     FM031400 VRB03KT P6SM BKN250
     FM031800 18004KT P6SM VCSH SCT040 OVC100
     FM032000 17006KT 3SM -SN BR SCT015 OVC030=



000
FTUS41 KALY 022351
TAFALB
TAF
KALB 022351Z 0300/0324 30017G30KT P6SM VCSH SCT035 OVC050
     FM030200 31012G22KT P6SM SCT050
     FM030600 32004KT P6SM SKC
     FM031200 00000KT P6SM FEW200
     FM031700 17006KT P6SM BKN200
     FM032100 18010KT 3SM -SN BR SCT020 OVC050=



000
FTUS41 KALY 022351
TAFPOU
TAF
KPOU 022351Z 0300/0324 29008KT P6SM SKC
     FM030300 30004KT P6SM SKC
     FM030600 00000KT P6SM SKC
     FM031400 VRB03KT P6SM BKN250
     FM031800 18004KT P6SM VCSH SCT040 OVC100
     FM032000 17006KT 3SM -SN BR SCT015 OVC030=



000
FTUS41 KALY 022351
TAFGFL
TAF
KGFL 022351Z 0300/0324 29012G20KT P6SM VCSH OVC070
     FM030200 32007KT P6SM BKN060
     FM030600 VRB03KT P6SM SCT060
     FM031000 00000KT P6SM SKC
     FM031800 15003KT P6SM BKN120 BKN250
     FM032200 16008KT 5SM -SN BR SCT020 OVC050=



000
FTUS41 KALY 022057 AAA
TAFALB
TAF AMD
KALB 022057Z 0221/0318 29022G35KT P6SM VCSH BKN035 OVC050
     FM022300 30014G21KT P6SM SCT035 BKN050
     FM030100 31009KT P6SM SCT050
     FM030600 32003KT P6SM SKC
     FM031500 17006KT P6SM BKN150=



000
FTUS41 KALY 022057 AAA
TAFALB
TAF AMD
KALB 022057Z 0221/0318 29022G35KT P6SM VCSH BKN035 OVC050
     FM022300 30014G21KT P6SM SCT035 BKN050
     FM030100 31009KT P6SM SCT050
     FM030600 32003KT P6SM SKC
     FM031500 17006KT P6SM BKN150=



000
FTUS41 KALY 021857 AAA
TAFGFL
TAF AMD
KGFL 021857Z 0219/0318 28015KT P6SM VCSH OVC060
     FM030100 31006KT P6SM SCT060
     FM030600 00000KT P6SM SKC
     FM031500 15003KT P6SM BKN150=



000
FTUS41 KALY 021857 AAA
TAFGFL
TAF AMD
KGFL 021857Z 0219/0318 28015KT P6SM VCSH OVC060
     FM030100 31006KT P6SM SCT060
     FM030600 00000KT P6SM SKC
     FM031500 15003KT P6SM BKN150=



000
FTUS41 KALY 021727
TAFGFL
TAF
KGFL 021727Z 0218/0318 28011KT P6SM VCSH OVC060
     FM030100 31006KT P6SM SCT060
     FM030600 00000KT P6SM SKC
     FM031500 15003KT P6SM BKN150=



000
FTUS41 KALY 021727
TAFALB
TAF
KALB 021727Z 0218/0318 29018G27KT P6SM VCSH BKN035 OVC050
     FM022200 30014G21KT P6SM SCT035 BKN050
     FM030100 31009KT P6SM SCT050
     FM030600 32003KT P6SM SKC
     FM031500 17006KT P6SM BKN150=



000
FTUS41 KALY 021727
TAFALB
TAF
KALB 021727Z 0218/0318 29018G27KT P6SM VCSH BKN035 OVC050
     FM022200 30014G21KT P6SM SCT035 BKN050
     FM030100 31009KT P6SM SCT050
     FM030600 32003KT P6SM SKC
     FM031500 17006KT P6SM BKN150=



000
FTUS41 KALY 021727
TAFGFL
TAF
KGFL 021727Z 0218/0318 28011KT P6SM VCSH OVC060
     FM030100 31006KT P6SM SCT060
     FM030600 00000KT P6SM SKC
     FM031500 15003KT P6SM BKN150=



000
FTUS41 KALY 021727
TAFPOU
TAF
KPOU 021727Z 0218/0318 29010G18KT P6SM OVC050
     FM030100 30005KT P6SM SCT050
     FM030600 00000KT P6SM SKC=



000
FTUS41 KALY 021727
TAFPOU
TAF
KPOU 021727Z 0218/0318 29010G18KT P6SM OVC050
     FM030100 30005KT P6SM SCT050
     FM030600 00000KT P6SM SKC=



000
FTUS41 KALY 021617 AAA
TAFGFL
TAF AMD
KGFL 021617Z 0216/0312 29010KT P6SM OVC050
     FM021800 29013G20KT P6SM BKN050
     FM030100 33008KT P6SM SCT050
     FM030600 35003KT P6SM SKC=



000
FTUS41 KALY 021617 AAA
TAFGFL
TAF AMD
KGFL 021617Z 0216/0312 29010KT P6SM OVC050
     FM021800 29013G20KT P6SM BKN050
     FM030100 33008KT P6SM SCT050
     FM030600 35003KT P6SM SKC=



000
FTUS41 KALY 021157 CCA
TAFGFL
TAF COR
KGFL 021157Z 0212/0312 23007KT P6SM VCSH SCT015 OVC035
      TEMPO 0212/0213 00000KT 2SM BR
     FM021500 28012G19KT P6SM OVC040
     FM021800 29014G24KT P6SM BKN050
     FM030100 33008KT P6SM SCT050
     FM030600 35003KT P6SM SKC=



000
FTUS41 KALY 021137
TAFPOU
TAF
KPOU 021137Z 0212/0312 24005KT P6SM OVC050
     FM021300 28009KT P6SM OVC050
     FM021600 29012G20KT P6SM BKN050
     FM030100 30007KT P6SM FEW050
     FM030600 33003KT P6SM SKC=



000
FTUS41 KALY 021137
TAFGFL
TAF
KGFL 021137Z 0212/0312 23007KT P6SM VCSH SCT015 OVC035
     FM021500 28012G19KT P6SM OVC040
     FM021800 29014G24KT P6SM BKN050
     FM030100 33008KT P6SM SCT050
     FM030600 35003KT P6SM SKC=



000
FTUS41 KALY 021137
TAFALB
TAF
KALB 021137Z 0212/0312 28008KT 5SM -SHSN BR BKN020 OVC035
      TEMPO 0212/0214 28010G20KT P6SM NSW SCT020 OVC035
     FM021400 29013G23KT P6SM SCT025 OVC035
     FM021800 29018G28KT P6SM BKN050
     FM030100 31009KT P6SM SCT050
     FM030700 32003KT P6SM SKC=



000
FTUS41 KALY 021137
TAFPOU
TAF
KPOU 021137Z 0212/0312 24005KT P6SM OVC050
     FM021300 28009KT P6SM OVC050
     FM021600 29012G20KT P6SM BKN050
     FM030100 30007KT P6SM FEW050
     FM030600 33003KT P6SM SKC=



000
FTUS41 KALY 021137
TAFGFL
TAF
KGFL 021137Z 0212/0312 23007KT P6SM VCSH SCT015 OVC035
     FM021500 28012G19KT P6SM OVC040
     FM021800 29014G24KT P6SM BKN050
     FM030100 33008KT P6SM SCT050
     FM030600 35003KT P6SM SKC=



000
FTUS41 KALY 021137
TAFALB
TAF
KALB 021137Z 0212/0312 28008KT 5SM -SHSN BR BKN020 OVC035
      TEMPO 0212/0214 28010G20KT P6SM NSW SCT020 OVC035
     FM021400 29013G23KT P6SM SCT025 OVC035
     FM021800 29018G28KT P6SM BKN050
     FM030100 31009KT P6SM SCT050
     FM030700 32003KT P6SM SKC=



000
FTUS41 KALY 021045 AAA
TAFALB
TAF AMD
KALB 021045Z 0211/0306 VRB04KT 5SM -SHSN BR OVC027
     FM021200 28010KT P6SM VCSH BKN025 OVC035
     FM021500 29015G25KT P6SM OVC040
     FM021800 29019G29KT P6SM BKN050
     FM030100 31009KT P6SM SCT050=



000
FTUS41 KALY 020532
TAFALB
TAF
KALB 020532Z 0206/0306 18007KT 2SM -SN BR SCT009 BKN025 OVC040
      TEMPO 0206/0208 4SM -SN BR BKN009 OVC025
     FM020800 20007KT P6SM VCSH SCT025 OVC035
      TEMPO 0208/0210 4SM -SHSN BR BKN025 OVC035
     FM021200 28010KT P6SM BKN025 OVC035
     FM021500 29015G25KT P6SM OVC040
     FM021800 29019G29KT P6SM BKN050
     FM030100 31009KT P6SM SCT050=



000
FTUS41 KALY 020532
TAFPOU
TAF
KPOU 020532Z 0206/0306 VRB02KT 6SM BR VCSH SCT025 OVC050
      TEMPO 0206/0208 4SM -SHSN BR BKN025 OVC040
     FM020800 VRB02KT P6SM VCSH SCT025 OVC040
     FM021300 28008KT P6SM OVC040
     FM021600 29012G20KT P6SM BKN050
     FM030100 30007KT P6SM FEW050=



000
FTUS41 KALY 020532
TAFALB
TAF
KALB 020532Z 0206/0306 18007KT 2SM -SN BR SCT009 BKN025 OVC040
      TEMPO 0206/0208 4SM -SN BR BKN009 OVC025
     FM020800 20007KT P6SM VCSH SCT025 OVC035
      TEMPO 0208/0210 4SM -SHSN BR BKN025 OVC035
     FM021200 28010KT P6SM BKN025 OVC035
     FM021500 29015G25KT P6SM OVC040
     FM021800 29019G29KT P6SM BKN050
     FM030100 31009KT P6SM SCT050=



000
FTUS41 KALY 020532
TAFPOU
TAF
KPOU 020532Z 0206/0306 VRB02KT 6SM BR VCSH SCT025 OVC050
      TEMPO 0206/0208 4SM -SHSN BR BKN025 OVC040
     FM020800 VRB02KT P6SM VCSH SCT025 OVC040
     FM021300 28008KT P6SM OVC040
     FM021600 29012G20KT P6SM BKN050
     FM030100 30007KT P6SM FEW050=



000
FTUS41 KALY 020532
TAFGFL
TAF
KGFL 020532Z 0206/0306 21006KT 6SM BR VCSH SCT008 OVC040
      TEMPO 0206/0208 2SM -SN BR BKN008 OVC015
     FM020800 22005KT P6SM VCSH SCT015 OVC035
      TEMPO 0208/0210 4SM -SHSN OVC015
     FM021500 28012G18KT P6SM BKN040
     FM021800 29015G24KT P6SM BKN050
     FM030100 32008KT P6SM SCT050=



000
FTUS41 KALY 020532
TAFGFL
TAF
KGFL 020532Z 0206/0306 21006KT 6SM BR VCSH SCT008 OVC040
      TEMPO 0206/0208 2SM -SN BR BKN008 OVC015
     FM020800 22005KT P6SM VCSH SCT015 OVC035
      TEMPO 0208/0210 4SM -SHSN OVC015
     FM021500 28012G18KT P6SM BKN040
     FM021800 29015G24KT P6SM BKN050
     FM030100 32008KT P6SM SCT050=



000
FTUS41 KALY 020315 AAB
TAFGFL
TAF AMD
KGFL 020315Z 0203/0224 21003KT 4SM -SN OVC045
      TEMPO 0203/0205 2SM -SN BR BKN025 OVC040
     FM020700 22004KT P6SM VCSH SCT020 OVC035
     FM021300 26008KT P6SM BKN040
     FM021500 28012G18KT P6SM BKN050=



000
FTUS41 KALY 020315 AAB
TAFGFL
TAF AMD
KGFL 020315Z 0203/0224 21003KT 4SM -SN OVC045
      TEMPO 0203/0205 2SM -SN BR BKN025 OVC040
     FM020700 22004KT P6SM VCSH SCT020 OVC035
     FM021300 26008KT P6SM BKN040
     FM021500 28012G18KT P6SM BKN050=



000
FTUS41 KALY 020313 AAB
TAFPOU
TAF AMD
KPOU 020313Z 0203/0224 17005KT 2SM -SN SCT015 OVC025
      TEMPO 0203/0205 1SM -SN BR BKN015 OVC025
     FM020500 VRB03KT 3SM -SN BR SCT015 OVC025
     FM020700 00000KT P6SM VCSH SCT025 OVC035
     FM021200 28010KT P6SM BKN040
     FM021500 29012G23KT P6SM BKN050=



000
FTUS41 KALY 020313 AAB
TAFPOU
TAF AMD
KPOU 020313Z 0203/0224 17005KT 2SM -SN SCT015 OVC025
      TEMPO 0203/0205 1SM -SN BR BKN015 OVC025
     FM020500 VRB03KT 3SM -SN BR SCT015 OVC025
     FM020700 00000KT P6SM VCSH SCT025 OVC035
     FM021200 28010KT P6SM BKN040
     FM021500 29012G23KT P6SM BKN050=



000
FTUS41 KALY 020202 AAA
TAFPOU
TAF AMD
KPOU 020202Z 0202/0224 17005KT 2SM -SN SCT008 OVC015
      TEMPO 0202/0205 1SM -SN BR BKN008 OVC015
     FM020500 VRB03KT 3SM -SN BR SCT015 OVC025
     FM020700 00000KT P6SM VCSH SCT025 OVC035
     FM021200 28010KT P6SM BKN040
     FM021500 29012G23KT P6SM BKN050=



000
FTUS41 KALY 020202 AAA
TAFPOU
TAF AMD
KPOU 020202Z 0202/0224 17005KT 2SM -SN SCT008 OVC015
      TEMPO 0202/0205 1SM -SN BR BKN008 OVC015
     FM020500 VRB03KT 3SM -SN BR SCT015 OVC025
     FM020700 00000KT P6SM VCSH SCT025 OVC035
     FM021200 28010KT P6SM BKN040
     FM021500 29012G23KT P6SM BKN050=



000
FTUS41 KALY 020201 AAA
TAFALB
TAF AMD
KALB 020201Z 0202/0224 17010KT 2SM -SN BR SCT015 OVC025
      TEMPO 0202/0204 1SM -SN BR BKN015 OVC025
     FM020400 18007KT 4SM -SN BR BKN025 OVC040
     FM020700 27010KT P6SM VCSH SCT025 OVC035
     FM021400 29015G25KT P6SM BKN050=



000
FTUS41 KALY 020102 AAA
TAFGFL
TAF AMD
KGFL 020102Z 0201/0224 20007KT 2SM -SN BR SCT015 OVC030
      TEMPO 0201/0203 3SM -SN BR SCT025 OVC035
     FM020300 21003KT 4SM -SN OVC020
     FM020700 22004KT P6SM VCSH SCT020 OVC035
     FM021300 26008KT P6SM BKN040
     FM021500 28012G18KT P6SM BKN050=



000
FTUS41 KALY 020102 AAA
TAFGFL
TAF AMD
KGFL 020102Z 0201/0224 20007KT 2SM -SN BR SCT015 OVC030
      TEMPO 0201/0203 3SM -SN BR SCT025 OVC035
     FM020300 21003KT 4SM -SN OVC020
     FM020700 22004KT P6SM VCSH SCT020 OVC035
     FM021300 26008KT P6SM BKN040
     FM021500 28012G18KT P6SM BKN050=



000
FTUS41 KALY 012325
TAFGFL
TAF
KGFL 012325Z 0200/0224 20007KT 2SM -SN BR SCT015 OVC035
      TEMPO 0200/0201 1SM -SN BR BKN008 OVC015
     FM020300 21003KT 4SM -SN OVC020
     FM020700 22004KT P6SM VCSH SCT020 OVC035
     FM021300 26008KT P6SM BKN040
     FM021500 28012G18KT P6SM BKN050=



000
FTUS41 KALY 012325
TAFPOU
TAF
KPOU 012325Z 0200/0224 17005KT 2SM -SN SCT008 OVC015
      TEMPO 0200/0202 1/2SM SN FZFG VV008
     FM020500 VRB03KT 3SM -SN BR SCT015 OVC025
     FM020700 00000KT P6SM VCSH SCT025 OVC035
     FM021200 28010KT P6SM BKN040
     FM021500 29012G23KT P6SM BKN050=



000
FTUS41 KALY 012325
TAFALB
TAF
KALB 012325Z 0200/0224 17010KT 2SM -SN BR SCT015 OVC025
      TEMPO 0200/0202 1SM -SN BR BKN008 OVC015
     FM020400 18007KT 4SM -SN BR BKN025 OVC040
     FM020700 27010KT P6SM VCSH SCT025 OVC035
     FM021400 29015G25KT P6SM BKN050=



000
FTUS41 KALY 012325
TAFGFL
TAF
KGFL 012325Z 0200/0224 20007KT 2SM -SN BR SCT015 OVC035
      TEMPO 0200/0201 1SM -SN BR BKN008 OVC015
     FM020300 21003KT 4SM -SN OVC020
     FM020700 22004KT P6SM VCSH SCT020 OVC035
     FM021300 26008KT P6SM BKN040
     FM021500 28012G18KT P6SM BKN050=



000
FTUS41 KALY 012325
TAFPOU
TAF
KPOU 012325Z 0200/0224 17005KT 2SM -SN SCT008 OVC015
      TEMPO 0200/0202 1/2SM SN FZFG VV008
     FM020500 VRB03KT 3SM -SN BR SCT015 OVC025
     FM020700 00000KT P6SM VCSH SCT025 OVC035
     FM021200 28010KT P6SM BKN040
     FM021500 29012G23KT P6SM BKN050=



000
FTUS41 KALY 012325
TAFALB
TAF
KALB 012325Z 0200/0224 17010KT 2SM -SN BR SCT015 OVC025
      TEMPO 0200/0202 1SM -SN BR BKN008 OVC015
     FM020400 18007KT 4SM -SN BR BKN025 OVC040
     FM020700 27010KT P6SM VCSH SCT025 OVC035
     FM021400 29015G25KT P6SM BKN050=



000
FTUS41 KALY 012211 AAB
TAFALB
TAF AMD
KALB 012211Z 0122/0218 17012G18KT 2SM -SN BR SCT015 OVC025
      TEMPO 0122/0202 1SM -SN BR BKN015 OVC025
     FM020200 18006KT 4SM -SN BR OVC020
     FM020400 22005KT P6SM VCSH OVC025
     FM021100 28010KT P6SM OVC035
     FM021400 29015G25KT P6SM BKN050=



000
FTUS41 KALY 012211 AAB
TAFALB
TAF AMD
KALB 012211Z 0122/0218 17012G18KT 2SM -SN BR SCT015 OVC025
      TEMPO 0122/0202 1SM -SN BR BKN015 OVC025
     FM020200 18006KT 4SM -SN BR OVC020
     FM020400 22005KT P6SM VCSH OVC025
     FM021100 28010KT P6SM OVC035
     FM021400 29015G25KT P6SM BKN050=



000
FTUS41 KALY 012202 AAB
TAFGFL
TAF AMD
KGFL 012202Z 0122/0218 19007KT 3SM -SN BR SCT015 OVC050
      TEMPO 0122/0202 1SM -SN BR BKN015 OVC050
     FM020400 VRB03KT 4SM -SN OVC020
     FM020800 22004KT P6SM SCT020 OVC035
     FM021300 26008KT P6SM BKN040=



000
FTUS41 KALY 012112 AAA
TAFPOU
TAF AMD
KPOU 012112Z 0121/0218 18009KT 3SM -SN BR SCT020 OVC035
      TEMPO 0121/0123 1/2SM SN FZFG SCT008 OVC010
     FM012300 18010KT 1SM -SN BR BKN008 OVC015
     FM020000 20008KT 3/4SM -SN OVC008
     FM020400 VRB03KT 2SM -SN BR SCT008 OVC015
     FM020700 00000KT P6SM VCSH SCT015 OVC025
     FM021200 27010KT P6SM SCT015 BKN035=



000
FTUS41 KALY 012112 AAA
TAFPOU
TAF AMD
KPOU 012112Z 0121/0218 18009KT 3SM -SN BR SCT020 OVC035
      TEMPO 0121/0123 1/2SM SN FZFG SCT008 OVC010
     FM012300 18010KT 1SM -SN BR BKN008 OVC015
     FM020000 20008KT 3/4SM -SN OVC008
     FM020400 VRB03KT 2SM -SN BR SCT008 OVC015
     FM020700 00000KT P6SM VCSH SCT015 OVC025
     FM021200 27010KT P6SM SCT015 BKN035=



000
FTUS41 KALY 012111 AAA
TAFGFL
TAF AMD
KGFL 012111Z 0121/0218 17008KT 3SM -SN BR OVC040
      TEMPO 0121/0122 2SM -SN BKN025
     FM012200 18006KT 1SM -SN BR BKN015 OVC025
     FM020400 VRB03KT 4SM -SN OVC020
     FM020800 22004KT P6SM SCT020 OVC035
     FM021300 26008KT P6SM BKN040=



000
FTUS41 KALY 012111 AAA
TAFGFL
TAF AMD
KGFL 012111Z 0121/0218 17008KT 3SM -SN BR OVC040
      TEMPO 0121/0122 2SM -SN BKN025
     FM012200 18006KT 1SM -SN BR BKN015 OVC025
     FM020400 VRB03KT 4SM -SN OVC020
     FM020800 22004KT P6SM SCT020 OVC035
     FM021300 26008KT P6SM BKN040=



000
FTUS41 KALY 012019 AAA
TAFALB
TAF AMD
KALB 012019Z 0120/0218 18012G18KT 5SM -SN BR SCT025 OVC040
      TEMPO 0120/0122 1 1/2SM -SN BR BKN025
     FM012200 19009KT 1SM -SN BR BKN015 OVC025
     FM020200 18006KT 4SM -SN BR OVC020
     FM020400 22005KT P6SM VCSH OVC025
     FM021100 28010KT P6SM OVC035
     FM021400 29015G25KT P6SM BKN050=



000
FTUS41 KALY 012019 AAA
TAFALB
TAF AMD
KALB 012019Z 0120/0218 18012G18KT 5SM -SN BR SCT025 OVC040
      TEMPO 0120/0122 1 1/2SM -SN BR BKN025
     FM012200 19009KT 1SM -SN BR BKN015 OVC025
     FM020200 18006KT 4SM -SN BR OVC020
     FM020400 22005KT P6SM VCSH OVC025
     FM021100 28010KT P6SM OVC035
     FM021400 29015G25KT P6SM BKN050=



000
FTUS41 KALY 011748
TAFALB
TAF
KALB 011748Z 0118/0218 18012G18KT 3SM -SN BR SCT025 OVC035
      TEMPO 0118/0120 1 1/2SM -SN BR BKN025
     FM012000 19009KT 1SM -SN BR BKN015 OVC025
     FM020200 18006KT 4SM -SN BR OVC020
     FM020400 22005KT P6SM VCSH OVC025
     FM021100 28010KT P6SM OVC035
     FM021400 29015G25KT P6SM BKN050=



000
FTUS41 KALY 011748
TAFGFL
TAF
KGFL 011748Z 0118/0218 17008KT P6SM VCSH OVC040
      TEMPO 0119/0121 2SM -SN BKN025
     FM012100 18006KT 1SM -SN BR BKN015 OVC025
     FM020400 VRB03KT 4SM -SN OVC020
     FM020800 22004KT P6SM SCT020 OVC035
     FM021300 26008KT P6SM BKN040=



000
FTUS41 KALY 011748
TAFPOU
TAF
KPOU 011748Z 0118/0218 18009KT 3SM -SN BR SCT020 OVC035
      TEMPO 0118/0121 1SM -SN BR SCT008 OVC015
     FM012100 18010KT 1SM -SN BR BKN008 OVC015
     FM020000 20008KT 3/4SM -SN OVC008
     FM020400 VRB03KT 2SM -SN BR SCT008 OVC015
     FM020700 00000KT P6SM VCSH SCT015 OVC025
     FM021200 27010KT P6SM SCT015 BKN035=



000
FTUS41 KALY 011748
TAFPOU
TAF
KPOU 011748Z 0118/0218 18009KT 3SM -SN BR SCT020 OVC035
      TEMPO 0118/0121 1SM -SN BR SCT008 OVC015
     FM012100 18010KT 1SM -SN BR BKN008 OVC015
     FM020000 20008KT 3/4SM -SN OVC008
     FM020400 VRB03KT 2SM -SN BR SCT008 OVC015
     FM020700 00000KT P6SM VCSH SCT015 OVC025
     FM021200 27010KT P6SM SCT015 BKN035=



000
FTUS41 KALY 011748
TAFALB
TAF
KALB 011748Z 0118/0218 18012G18KT 3SM -SN BR SCT025 OVC035
      TEMPO 0118/0120 1 1/2SM -SN BR BKN025
     FM012000 19009KT 1SM -SN BR BKN015 OVC025
     FM020200 18006KT 4SM -SN BR OVC020
     FM020400 22005KT P6SM VCSH OVC025
     FM021100 28010KT P6SM OVC035
     FM021400 29015G25KT P6SM BKN050=



000
FTUS41 KALY 011748
TAFGFL
TAF
KGFL 011748Z 0118/0218 17008KT P6SM VCSH OVC040
      TEMPO 0119/0121 2SM -SN BKN025
     FM012100 18006KT 1SM -SN BR BKN015 OVC025
     FM020400 VRB03KT 4SM -SN OVC020
     FM020800 22004KT P6SM SCT020 OVC035
     FM021300 26008KT P6SM BKN040=



    US Dept of Commerce
    National Oceanic and Atmospheric Administration
    National Weather Service
    1325 East West Highway
    Silver Spring, MD 20910
    Page Author: NWS Internet Services Team
Disclaimer
Information Quality
Credits
Glossary
Privacy Policy
Freedom of Information Act (FOIA)
About Us
Career Opportunities